createdAt,value
2023-03-06T00:29:05.555Z,959.46
2023-03-06T00:59:05.821Z,959.37
2023-03-06T01:29:05.692Z,959.03
2023-03-06T01:59:05.532Z,958.72
2023-03-06T02:29:05.801Z,958.56
2023-03-06T02:59:05.674Z,958.45
2023-03-06T03:29:05.556Z,958.23
2023-03-06T03:59:05.590Z,958.18
2023-03-06T04:29:05.367Z,958.07
2023-03-06T04:59:05.860Z,957.97
2023-03-06T05:29:05.437Z,958.07
2023-03-06T06:29:05.553Z,958.07
2023-03-06T06:59:15.952Z,958.29
2023-03-06T07:29:05.324Z,958.29
2023-03-06T07:59:07.686Z,958.32
2023-03-06T08:29:05.420Z,958.37
2023-03-06T08:59:05.309Z,958.35
2023-03-06T09:29:05.521Z,958.25
2023-03-06T09:59:05.408Z,958.15
2023-03-06T10:29:05.307Z,957.98
2023-03-06T10:59:05.499Z,957.76
2023-03-06T11:29:06.960Z,957.41
2023-03-06T11:59:05.267Z,956.99
2023-03-06T12:29:04.966Z,956.47
2023-03-06T12:59:04.856Z,956.26
2023-03-06T13:29:04.947Z,956.14
2023-03-06T13:59:04.963Z,956.12
2023-03-06T14:29:04.729Z,956.11
2023-03-06T15:29:09.180Z,956.06
2023-03-06T15:59:04.726Z,956.07
2023-03-06T16:29:04.401Z,956.17
2023-03-06T16:59:04.703Z,956.52
2023-03-06T17:29:06.637Z,957.03
2023-03-06T17:59:04.565Z,957.28
2023-03-06T18:59:04.716Z,957.65
2023-03-06T19:29:04.275Z,957.78
2023-03-06T19:59:04.489Z,958.16
2023-03-06T20:29:03.846Z,958.23
2023-03-06T20:59:04.102Z,958.22
2023-03-06T21:29:04.210Z,958.12
2023-03-06T21:59:04.130Z,958.15
2023-03-06T22:29:03.862Z,958.0
2023-03-06T22:59:04.017Z,957.94
2023-03-06T23:29:03.633Z,957.91
2023-03-06T23:59:04.003Z,957.68
